Time;durP1;ratioP1;P1;durP2;ratioP2;P2;SDS_P1;SDS_P2;PMS_P1;PMS_P2;Temp;Humidity;BMP_temperature;BMP_pressure;BME280_temperature;BME280_humidity;BME280_pressure;Samples;Min_cycle;Max_cycle;Signal;HPM_P1;HPM_P2
2024/01/04 00:01:14;;;;;;;3.28;0.93;;;;;;;7.25;100.00;99408.22;5071103;28;20385;-90
2024/01/04 00:03:40;;;;;;;3.20;0.88;;;;;;;7.13;100.00;99407.75;5076922;28;20052;-90
2024/01/04 00:06:06;;;;;;;3.65;1.00;;;;;;;7.06;100.00;99401.09;5075920;28;20460;-91
2024/01/04 00:08:31;;;;;;;2.67;0.80;;;;;;;7.01;100.00;99403.00;5075204;28;20476;-91
2024/01/04 00:10:57;;;;;;;1.73;0.70;;;;;;;6.96;100.00;99400.56;5073494;28;20024;-90
2024/01/04 00:13:24;;;;;;;2.75;0.82;;;;;;;6.96;100.00;99421.25;5075657;28;20029;-90
2024/01/04 00:15:49;;;;;;;2.33;0.85;;;;;;;6.96;100.00;99420.44;5071131;28;20027;-90
2024/01/04 00:18:15;;;;;;;3.03;0.80;;;;;;;6.94;100.00;99422.22;5077710;28;20024;-91
2024/01/04 00:20:40;;;;;;;1.48;0.70;;;;;;;6.95;100.00;99423.91;5075435;28;20023;-91
2024/01/04 00:23:05;;;;;;;1.70;0.88;;;;;;;6.94;100.00;99433.38;5070105;28;20037;-90
2024/01/04 00:25:31;;;;;;;2.33;0.80;;;;;;;6.91;100.00;99432.66;5072982;28;20030;-92
2024/01/04 00:27:56;;;;;;;1.77;0.70;;;;;;;6.86;100.00;99440.56;5074593;28;20038;-91
2024/01/04 00:30:21;;;;;;;1.83;0.70;;;;;;;6.86;100.00;99442.28;5074076;28;20032;-91
2024/01/04 00:32:47;;;;;;;2.65;0.80;;;;;;;6.83;100.00;99457.00;5070791;28;20043;-92
2024/01/04 00:35:12;;;;;;;2.10;0.75;;;;;;;6.82;100.00;99460.50;5072314;28;20112;-91
2024/01/04 00:37:37;;;;;;;1.55;0.60;;;;;;;6.82;100.00;99470.00;5077530;28;20050;-90
2024/01/04 00:40:03;;;;;;;2.25;0.63;;;;;;;6.83;100.00;99471.69;5074540;28;20107;-91
2024/01/04 00:42:28;;;;;;;3.22;0.80;;;;;;;6.84;100.00;99479.38;5072245;28;20101;-91
2024/01/04 00:44:54;;;;;;;2.78;0.80;;;;;;;6.86;100.00;99486.25;5071243;28;20052;-91
2024/01/04 00:47:19;;;;;;;4.00;1.10;;;;;;;6.87;100.00;99491.38;5076591;28;20074;-92
2024/01/04 00:49:45;;;;;;;3.25;1.10;;;;;;;6.90;100.00;99493.88;5077168;28;20079;-91
2024/01/04 00:52:10;;;;;;;3.97;1.10;;;;;;;6.92;100.00;99511.91;5079280;28;20024;-91
2024/01/04 00:54:35;;;;;;;5.00;1.45;;;;;;;6.91;100.00;99505.03;5073388;28;20024;-91
2024/01/04 00:57:01;;;;;;;2.60;1.10;;;;;;;6.91;100.00;99511.06;5072118;28;20032;-92
2024/01/04 00:59:26;;;;;;;2.25;1.00;;;;;;;6.91;100.00;99520.56;5076494;28;20055;-92
2024/01/04 01:01:52;;;;;;;2.40;0.90;;;;;;;6.89;100.00;99523.19;5074797;28;20027;-92
2024/01/04 01:04:17;;;;;;;3.90;1.10;;;;;;;6.90;100.00;99524.91;5075953;28;20098;-91
2024/01/04 01:06:43;;;;;;;5.70;1.10;;;;;;;6.94;100.00;99543.72;5076419;28;20046;-90
2024/01/04 01:09:08;;;;;;;5.15;1.20;;;;;;;6.95;100.00;99550.59;5074692;28;20027;-91
2024/01/04 01:11:33;;;;;;;4.10;1.08;;;;;;;6.88;100.00;99551.66;5074011;28;20081;-91
2024/01/04 01:13:59;;;;;;;2.00;0.90;;;;;;;6.81;100.00;99559.63;5072488;28;20077;-90
2024/01/04 01:16:25;;;;;;;2.55;0.75;;;;;;;6.78;100.00;99562.31;5073461;28;20024;-91
2024/01/04 01:18:50;;;;;;;2.38;0.80;;;;;;;6.78;100.00;99576.97;5070898;28;20476;-91
2024/01/04 01:21:15;;;;;;;3.35;0.98;;;;;;;6.78;100.00;99567.47;5073236;28;20393;-92
2024/01/04 01:23:41;;;;;;;3.35;1.08;;;;;;;6.77;100.00;99576.13;5072119;28;20020;-91
2024/01/04 01:26:07;;;;;;;3.28;1.20;;;;;;;6.76;100.00;99577.03;5074891;28;20031;-92
2024/01/04 01:28:32;;;;;;;1.90;1.10;;;;;;;6.81;100.00;99589.78;5075204;28;20025;-92
2024/01/04 01:31:00;;;;;;;3.33;1.00;;;;;;;6.80;100.00;99581.22;5073086;28;20153;-92
2024/01/04 01:33:26;;;;;;;4.28;1.58;;;;;;;6.80;100.00;99586.38;5075725;28;20016;-92
2024/01/04 01:35:51;;;;;;;7.50;1.40;;;;;;;6.81;100.00;99602.72;5075511;28;20046;-91
2024/01/04 01:38:16;;;;;;;6.95;1.40;;;;;;;6.82;100.00;99594.94;5078938;28;20033;-92
2024/01/04 01:40:42;;;;;;;2.95;1.00;;;;;;;6.83;100.00;99588.84;5078145;28;20032;-91
2024/01/04 01:43:07;;;;;;;3.42;1.05;;;;;;;6.86;100.00;99600.00;5077029;28;20028;-92
2024/01/04 01:45:32;;;;;;;3.70;1.02;;;;;;;6.87;100.00;99609.44;5075096;28;20103;-92
2024/01/04 01:47:58;;;;;;;3.88;1.08;;;;;;;6.86;100.00;99600.84;5081852;28;20231;-91
2024/01/04 01:50:24;;;;;;;5.60;1.00;;;;;;;6.87;100.00;99612.03;5081984;28;20107;-92
2024/01/04 01:52:51;;;;;;;2.38;0.82;;;;;;;6.89;100.00;99623.16;5078915;28;20034;-91
2024/01/04 01:55:17;;;;;;;4.78;1.25;;;;;;;6.89;100.00;99626.63;5079076;28;20021;-92
2024/01/04 01:57:43;;;;;;;3.85;1.10;;;;;;;6.90;100.00;99632.63;5080432;28;20042;-92
2024/01/04 02:00:10;;;;;;;2.97;1.33;;;;;;;6.92;100.00;99638.59;5079110;28;20024;-92
2024/01/04 02:02:36;;;;;;;4.72;1.40;;;;;;;6.93;100.00;99637.69;5083846;28;20426;-91
2024/01/04 02:05:02;;;;;;;5.82;1.83;;;;;;;6.96;100.00;99645.38;5088809;28;20137;-92
2024/01/04 02:07:28;;;;;;;4.55;1.20;;;;;;;6.97;100.00;99644.47;5079264;28;20115;-91
2024/01/04 02:09:55;;;;;;;5.38;1.45;;;;;;;6.98;100.00;99649.59;5079176;28;20090;-92
2024/01/04 02:12:20;;;;;;;4.03;1.10;;;;;;;7.00;100.00;99649.56;5077350;28;20500;-92
2024/01/04 02:14:45;;;;;;;4.80;1.33;;;;;;;6.99;100.00;99653.03;5079350;28;20059;-92
2024/01/04 02:17:11;;;;;;;3.92;1.38;;;;;;;7.00;100.00;99659.91;5083254;28;20513;-92
2024/01/04 02:19:36;;;;;;;4.07;1.38;;;;;;;7.02;100.00;99665.84;5081890;28;20013;-91
2024/01/04 02:22:02;;;;;;;4.50;1.50;;;;;;;7.00;100.00;99662.50;5084518;28;20027;-92
2024/01/04 02:24:28;;;;;;;4.93;1.67;;;;;;;7.03;100.00;99679.66;5080370;28;20111;-92
2024/01/04 02:26:53;;;;;;;4.80;1.90;;;;;;;7.00;100.00;99680.59;5077652;28;20744;-92
2024/01/04 02:29:19;;;;;;;5.38;1.63;;;;;;;7.03;100.00;99688.25;5083418;28;20028;-92
2024/01/04 02:31:47;;;;;;;4.13;1.60;;;;;;;7.05;100.00;99693.38;5079569;28;20621;-92
2024/01/04 02:34:12;;;;;;;8.52;1.67;;;;;;;7.05;100.00;99694.22;5076517;28;20024;-92
2024/01/04 02:36:37;;;;;;;6.47;1.73;;;;;;;7.07;100.00;99696.78;5083767;28;20103;-92
2024/01/04 02:39:04;;;;;;;4.45;1.80;;;;;;;7.08;100.00;99704.47;5078519;28;20118;-92
2024/01/04 02:41:29;;;;;;;4.28;1.70;;;;;;;7.08;100.00;99699.31;5083401;28;20035;-91
2024/01/04 02:43:55;;;;;;;3.75;1.90;;;;;;;7.10;100.00;99705.28;5078749;28;20024;-93
2024/01/04 02:46:20;;;;;;;5.28;1.80;;;;;;;7.10;100.00;99701.81;5077642;28;20024;-93
2024/01/04 02:48:45;;;;;;;6.93;1.73;;;;;;;7.12;100.00;99705.22;5083315;28;20036;-93
2024/01/04 02:51:11;;;;;;;8.73;2.03;;;;;;;7.13;100.00;99705.19;5081868;28;20020;-93
2024/01/04 02:53:36;;;;;;;4.00;1.65;;;;;;;7.13;100.00;99710.38;5077289;28;20023;-92
2024/01/04 02:56:02;;;;;;;5.97;1.50;;;;;;;7.14;100.00;99712.06;5076530;28;20043;-91
2024/01/04 02:58:28;;;;;;;7.72;1.60;;;;;;;7.15;100.00;99705.13;5079233;28;20093;-92
2024/01/04 03:00:53;;;;;;;3.90;1.77;;;;;;;7.13;100.00;99706.91;5080564;28;20481;-93
2024/01/04 03:03:19;;;;;;;7.85;1.92;;;;;;;7.16;100.00;99713.75;5078874;28;20032;-92
2024/01/04 03:05:44;;;;;;;4.45;1.60;;;;;;;7.16;100.00;99713.75;5078627;28;20016;-93
2024/01/04 03:08:10;;;;;;;5.97;1.63;;;;;;;7.14;100.00;99719.81;5076746;28;20020;-92
2024/01/04 03:10:35;;;;;;;6.78;1.70;;;;;;;7.16;100.00;99721.53;5079521;28;20125;-93
2024/01/04 03:13:03;;;;;;;5.60;1.77;;;;;;;7.14;100.00;99725.00;5076314;28;20027;-91
2024/01/04 03:15:28;;;;;;;4.78;1.80;;;;;;;7.12;100.00;99721.59;5081002;28;20027;-94
2024/01/04 03:17:53;;;;;;;7.63;1.73;;;;;;;7.12;100.00;99731.09;5081966;28;20024;-93
2024/01/04 03:20:19;;;;;;;8.40;1.92;;;;;;;7.12;100.00;99726.78;5078518;28;20411;-93
2024/01/04 03:22:44;;;;;;;5.03;1.58;;;;;;;7.11;100.00;99732.84;5080396;28;20028;-92
2024/01/04 03:25:10;;;;;;;4.95;1.70;;;;;;;7.09;100.00;99737.22;5081310;28;20020;-93
2024/01/04 03:27:36;;;;;;;5.03;1.70;;;;;;;7.08;100.00;99751.03;5077105;28;21661;-92
2024/01/04 03:30:01;;;;;;;2.92;1.48;;;;;;;7.08;100.00;99751.03;5073868;28;20028;-92
2024/01/04 03:32:27;;;;;;;9.77;1.90;;;;;;;7.08;100.00;99751.03;5079016;28;20055;-92
2024/01/04 03:34:52;;;;;;;5.18;1.70;;;;;;;7.07;100.00;99754.50;5080840;28;20032;-93
2024/01/04 03:37:17;;;;;;;6.25;1.75;;;;;;;7.10;100.00;99763.91;5074536;28;20020;-91
2024/01/04 03:39:43;;;;;;;4.68;1.60;;;;;;;7.08;100.00;99771.72;5082226;28;20027;-92
2024/01/04 03:42:08;;;;;;;4.60;1.73;;;;;;;7.11;100.00;99769.03;5075876;28;20028;-92
2024/01/04 03:44:33;;;;;;;5.93;1.85;;;;;;;7.12;100.00;99781.09;5081379;28;21489;-93
2024/01/04 03:46:59;;;;;;;5.47;1.85;;;;;;;7.10;100.00;99779.41;5083362;28;20024;-93
2024/01/04 03:49:24;;;;;;;6.10;2.05;;;;;;;7.12;100.00;99788.00;5078694;28;20040;-92
2024/01/04 03:51:50;;;;;;;4.60;1.90;;;;;;;7.13;100.00;99790.53;5080894;28;20046;-92
2024/01/04 03:54:16;;;;;;;5.35;2.10;;;;;;;7.12;100.00;99783.69;5077715;28;20024;-92
2024/01/04 03:56:41;;;;;;;6.20;2.08;;;;;;;7.12;100.00;99788.84;5079233;28;20020;-93
2024/01/04 03:59:06;;;;;;;5.55;2.15;;;;;;;7.14;100.00;99792.25;5081841;28;20031;-92
2024/01/04 04:01:32;;;;;;;5.15;2.08;;;;;;;7.16;100.00;99788.78;5079538;28;20040;-94
2024/01/04 04:03:57;;;;;;;6.55;1.95;;;;;;;7.14;100.00;99784.47;5080264;28;20036;-93
2024/01/04 04:06:22;;;;;;;5.28;1.77;;;;;;;7.16;100.00;99793.94;5078731;28;20077;-93
2024/01/04 04:08:48;;;;;;;6.30;2.25;;;;;;;7.15;100.00;99798.25;5078130;28;20020;-92
2024/01/04 04:11:17;;;;;;;5.47;1.83;;;;;;;7.16;100.00;99799.94;5075884;28;20032;-92
2024/01/04 04:13:43;;;;;;;6.95;2.00;;;;;;;7.15;100.00;99803.44;5078840;28;20186;-93
2024/01/04 04:16:09;;;;;;;8.73;2.17;;;;;;;7.13;100.00;99803.47;5072983;28;20669;-92
2024/01/04 04:18:34;;;;;;;5.57;2.38;;;;;;;7.13;100.00;99798.31;5084751;28;20036;-92
2024/01/04 04:20:59;;;;;;;7.30;2.30;;;;;;;7.10;100.00;99803.56;5074824;28;20081;-92
2024/01/04 04:23:25;;;;;;;4.25;2.17;;;;;;;7.11;100.00;99813.03;5080682;28;20032;-91
2024/01/04 04:25:50;;;;;;;6.43;2.85;;;;;;;7.10;100.00;99811.31;5073855;28;20030;-93
2024/01/04 04:28:15;;;;;;;6.40;2.65;;;;;;;7.10;100.00;99824.25;5074629;28;20026;-93
2024/01/04 04:30:41;;;;;;;7.22;2.53;;;;;;;7.08;100.00;99827.78;5078049;28;20043;-92
2024/01/04 04:33:06;;;;;;;6.65;3.15;;;;;;;7.05;100.00;99817.53;5081358;28;20074;-93
2024/01/04 04:35:31;;;;;;;6.43;2.53;;;;;;;7.03;100.00;99833.06;5076460;28;20066;-94
2024/01/04 04:37:57;;;;;;;7.43;2.65;;;;;;;7.04;100.00;99836.50;5076100;28;20029;-93
2024/01/04 04:40:22;;;;;;;7.07;2.70;;;;;;;7.01;100.00;99837.41;5077626;28;20027;-92
2024/01/04 04:42:48;;;;;;;8.68;2.63;;;;;;;7.01;100.00;99842.59;5075827;28;20060;-92
2024/01/04 04:45:13;;;;;;;5.68;2.90;;;;;;;6.98;100.00;99850.47;5081366;28;20028;-93
2024/01/04 04:47:38;;;;;;;6.80;2.70;;;;;;;6.96;100.00;99860.00;5081857;28;20043;-93
2024/01/04 04:50:04;;;;;;;6.95;2.95;;;;;;;6.95;100.00;99863.47;5080473;28;20043;-92
2024/01/04 04:52:30;;;;;;;5.05;2.53;;;;;;;6.94;100.00;99859.19;5078006;28;20082;-92
2024/01/04 04:54:55;;;;;;;5.63;2.30;;;;;;;6.93;100.00;99857.47;5079297;28;20028;-92
2024/01/04 04:57:21;;;;;;;4.30;2.22;;;;;;;6.92;100.00;99856.63;5078797;28;20029;-92
2024/01/04 04:59:47;;;;;;;8.40;2.10;;;;;;;6.95;100.00;99858.28;5075636;28;20016;-92
2024/01/04 05:02:12;;;;;;;4.65;1.90;;;;;;;6.94;100.00;99861.75;5075808;28;20133;-92
2024/01/04 05:04:38;;;;;;;4.03;2.08;;;;;;;6.92;100.00;99869.53;5077337;28;20413;-91
2024/01/04 05:07:03;;;;;;;5.93;1.75;;;;;;;6.94;100.00;99875.53;5078992;28;20757;-92
2024/01/04 05:09:28;;;;;;;5.18;1.90;;;;;;;6.97;100.00;99882.38;5072929;28;20073;-92
2024/01/04 05:11:54;;;;;;;6.65;1.80;;;;;;;6.98;100.00;99878.91;5076988;28;20032;-93
2024/01/04 05:14:19;;;;;;;6.03;1.88;;;;;;;6.98;100.00;99878.91;5081541;28;20471;-93
2024/01/04 05:16:44;;;;;;;5.30;2.10;;;;;;;7.00;100.00;99874.53;5079441;28;20480;-93
2024/01/04 05:19:13;;;;;;;4.72;1.95;;;;;;;6.99;100.00;99878.84;5082919;28;20384;-92
2024/01/04 05:21:40;;;;;;;5.18;2.10;;;;;;;6.99;100.00;99875.44;5083610;28;20554;-91
2024/01/04 05:24:05;;;;;;;6.55;1.83;;;;;;;6.98;100.00;99884.91;5080716;28;20088;-93
2024/01/04 05:26:31;;;;;;;10.55;1.80;;;;;;;6.99;100.00;99890.94;5080772;28;20570;-93
2024/01/04 05:28:57;;;;;;;3.45;1.52;;;;;;;6.98;100.00;99889.25;5080691;28;20042;-92
2024/01/04 05:31:22;;;;;;;3.75;1.40;;;;;;;6.96;100.00;99891.84;5085501;28;20156;-91
2024/01/04 05:33:48;;;;;;;3.58;1.17;;;;;;;6.96;100.00;99909.13;5083438;28;20104;-93
2024/01/04 05:36:14;;;;;;;3.45;1.20;;;;;;;6.94;100.00;99905.72;5080531;28;20127;-91
2024/01/04 05:38:39;;;;;;;4.05;1.10;;;;;;;6.93;100.00;99906.59;5078885;28;20040;-93
2024/01/04 05:41:04;;;;;;;2.67;1.20;;;;;;;6.94;100.00;99908.31;5081099;28;20412;-93
2024/01/04 05:43:31;;;;;;;4.22;1.27;;;;;;;6.94;100.00;99910.91;5080451;28;20036;-92
2024/01/04 05:45:56;;;;;;;2.95;1.10;;;;;;;6.95;100.00;99920.34;5084260;28;20023;-92
2024/01/04 05:48:22;;;;;;;2.63;1.10;;;;;;;6.95;100.00;99928.09;5078341;28;20029;-92
2024/01/04 05:50:49;;;;;;;4.43;1.20;;;;;;;6.96;100.00;99922.88;5082321;28;20040;-93
2024/01/04 05:53:15;;;;;;;3.25;1.55;;;;;;;6.98;100.00;99928.03;5084257;28;20125;-93
2024/01/04 05:55:40;;;;;;;9.20;1.63;;;;;;;6.99;100.00;99929.72;5085949;28;20465;-92
2024/01/04 05:58:05;;;;;;;2.97;1.73;;;;;;;6.98;100.00;99931.44;5081495;28;20123;-92
2024/01/04 06:00:31;;;;;;;4.07;1.63;;;;;;;6.95;100.00;99936.69;5082715;28;20023;-92
2024/01/04 06:02:56;;;;;;;3.85;1.92;;;;;;;6.95;100.00;99941.88;5077176;28;20036;-92
2024/01/04 06:05:21;;;;;;;5.85;2.17;;;;;;;6.95;100.00;99952.22;5083459;28;20024;-92
2024/01/04 06:07:47;;;;;;;6.60;2.90;;;;;;;6.96;100.00;99953.09;5084618;28;20028;-90
2024/01/04 06:10:12;;;;;;;8.18;2.92;;;;;;;6.98;100.00;99951.31;5080675;28;20102;-88
2024/01/04 06:12:38;;;;;;;6.80;2.90;;;;;;;7.00;100.00;99957.28;5082063;28;20055;-89
2024/01/04 06:15:03;;;;;;;5.65;3.30;;;;;;;7.02;100.00;99963.25;5081451;28;20071;-90
2024/01/04 06:17:29;;;;;;;6.55;3.03;;;;;;;7.03;100.00;99959.78;5085280;28;20595;-90
2024/01/04 06:19:54;;;;;;;6.95;3.20;;;;;;;7.01;100.00;99958.13;5080463;28;20023;-91
2024/01/04 06:22:20;;;;;;;4.50;2.47;;;;;;;6.99;100.00;99960.78;5083487;28;20334;-91
2024/01/04 06:24:46;;;;;;;5.22;2.50;;;;;;;6.99;100.00;99963.34;5082670;28;20020;-90
2024/01/04 06:27:11;;;;;;;5.88;2.45;;;;;;;6.99;100.00;99968.53;5083728;28;20081;-90
2024/01/04 06:29:37;;;;;;;4.20;2.10;;;;;;;6.97;100.00;99981.47;5084300;28;20536;-89
2024/01/04 06:32:02;;;;;;;6.18;1.88;;;;;;;6.95;100.00;99977.25;5079954;28;20055;-91
2024/01/04 06:34:28;;;;;;;6.22;2.10;;;;;;;6.96;100.00;99991.88;5079466;28;20056;-90
2024/01/04 06:36:53;;;;;;;5.38;2.03;;;;;;;6.95;100.00;99991.00;5079182;28;20024;-90
2024/01/04 06:39:19;;;;;;;4.22;2.00;;;;;;;6.94;100.00;99994.47;5078173;28;20109;-90
2024/01/04 06:41:44;;;;;;;4.18;1.90;;;;;;;6.93;100.00;99999.69;5077321;28;20766;-89
2024/01/04 06:44:10;;;;;;;4.05;1.95;;;;;;;6.91;100.00;100002.31;5075634;28;20066;-89
2024/01/04 06:46:35;;;;;;;5.68;2.28;;;;;;;6.92;100.00;100005.75;5077507;28;20020;-89
2024/01/04 06:49:01;;;;;;;3.33;1.80;;;;;;;6.89;100.00;100013.56;5082225;28;20511;-90
2024/01/04 06:51:26;;;;;;;5.57;2.35;;;;;;;6.87;100.00;100016.22;5078500;28;20035;-90
2024/01/04 06:53:51;;;;;;;3.78;2.00;;;;;;;6.87;100.00;100018.78;5086444;28;20077;-90
2024/01/04 06:56:19;;;;;;;6.90;2.25;;;;;;;6.85;100.00;100023.16;5083406;28;20036;-90
2024/01/04 06:58:45;;;;;;;4.53;1.90;;;;;;;6.84;100.00;100024.88;5076114;28;20028;-89
2024/01/04 07:01:10;;;;;;;3.92;2.00;;;;;;;6.86;100.00;100035.19;5080836;28;20039;-90
2024/01/04 07:03:36;;;;;;;4.18;2.00;;;;;;;6.85;100.00;100043.84;5082082;28;20028;-90
2024/01/04 07:06:02;;;;;;;3.85;2.03;;;;;;;6.85;100.00;100043.84;5079477;28;20451;-89
2024/01/04 07:08:28;;;;;;;3.38;1.80;;;;;;;6.88;100.00;100050.66;5079286;28;20055;-90
2024/01/04 07:10:53;;;;;;;6.03;1.80;;;;;;;6.88;100.00;100058.41;5084199;28;20027;-91
2024/01/04 07:13:18;;;;;;;4.53;2.05;;;;;;;6.89;100.00;100058.41;5077350;28;20106;-89
2024/01/04 07:15:44;;;;;;;3.67;1.88;;;;;;;6.92;100.00;100068.66;5079292;28;20080;-90
2024/01/04 07:18:09;;;;;;;4.30;2.00;;;;;;;6.93;100.00;100061.75;5077530;28;20460;-89
2024/01/04 07:20:35;;;;;;;6.18;1.83;;;;;;;6.95;100.00;100059.97;5085294;28;20435;-90
2024/01/04 07:23:00;;;;;;;3.15;1.85;;;;;;;6.94;100.00;100071.22;5077324;28;20086;-90
2024/01/04 07:25:25;;;;;;;2.97;1.75;;;;;;;6.93;100.00;100087.63;5079639;28;20021;-90
2024/01/04 07:27:52;;;;;;;3.42;1.80;;;;;;;6.95;100.00;100089.25;5082687;28;20034;-89
2024/01/04 07:30:17;;;;;;;6.03;2.00;;;;;;;6.95;100.00;100085.84;5078066;28;20056;-90
2024/01/04 07:32:43;;;;;;;6.68;2.42;;;;;;;6.97;100.00;100091.84;5082452;28;20538;-90
2024/01/04 07:35:12;;;;;;;5.05;2.60;;;;;;;6.97;100.00;100094.41;5077687;28;20024;-90
2024/01/04 07:37:37;;;;;;;5.93;2.53;;;;;;;6.97;100.00;100091.84;5081990;28;20074;-91
2024/01/04 07:40:03;;;;;;;4.25;2.40;;;;;;;6.97;100.00;100102.19;5079650;28;20094;-91
2024/01/04 07:42:29;;;;;;;5.68;2.55;;;;;;;6.98;100.00;100098.72;5081330;28;20035;-91
2024/01/04 07:44:54;;;;;;;3.78;2.20;;;;;;;6.95;100.00;100102.19;5080945;28;20035;-90
2024/01/04 07:47:20;;;;;;;4.15;1.80;;;;;;;6.95;100.00;100102.19;5082675;28;20024;-92
2024/01/04 07:49:45;;;;;;;3.55;1.70;;;;;;;6.91;100.00;100100.59;5077382;28;20423;-91
2024/01/04 07:52:10;;;;;;;3.72;1.38;;;;;;;6.90;100.00;100122.16;5083399;28;20031;-91
2024/01/04 07:54:36;;;;;;;3.42;1.63;;;;;;;6.89;100.00;100119.59;5081046;28;20028;-91
2024/01/04 07:57:01;;;;;;;4.85;1.58;;;;;;;6.89;100.00;100115.28;5081848;28;20136;-90
2024/01/04 07:59:27;;;;;;;5.53;1.77;;;;;;;6.93;100.00;100108.31;5081300;28;20465;-91
2024/01/04 08:01:52;;;;;;;4.90;2.08;;;;;;;6.93;100.00;100113.47;5076499;28;20504;-90
2024/01/04 08:04:17;;;;;;;6.05;2.30;;;;;;;6.93;100.00;100116.88;5081303;28;20032;-90
2024/01/04 08:06:43;;;;;;;5.07;2.50;;;;;;;6.96;100.00;100121.16;5079280;28;20680;-90
2024/01/04 08:09:11;;;;;;;7.07;2.80;;;;;;;6.96;100.00;100121.16;5077186;28;20505;-91
2024/01/04 08:11:37;;;;;;;7.93;2.67;;;;;;;6.96;100.00;100122.00;5079258;28;20038;-91
2024/01/04 08:14:03;;;;;;;6.57;3.08;;;;;;;6.97;100.00;100125.44;5080048;28;20028;-91
2024/01/04 08:16:28;;;;;;;6.32;2.97;;;;;;;6.98;100.00;100128.00;5080712;28;20024;-91
2024/01/04 08:18:54;;;;;;;4.10;2.58;;;;;;;6.97;100.00;100134.03;5078747;28;20150;-90
2024/01/04 08:21:19;;;;;;;4.78;2.80;;;;;;;6.99;100.00;100144.38;5078425;28;20045;-89
2024/01/04 08:23:44;;;;;;;9.85;2.78;;;;;;;6.99;100.00;100136.63;5079767;28;20055;-91
2024/01/04 08:26:10;;;;;;;7.28;3.10;;;;;;;7.00;100.00;100140.91;5082656;28;20399;-92
2024/01/04 08:28:39;;;;;;;9.23;2.80;;;;;;;7.02;100.00;100143.44;5080791;28;20081;-90
2024/01/04 08:31:04;;;;;;;5.57;2.72;;;;;;;7.02;100.00;100141.69;5082431;28;20031;-91
2024/01/04 08:33:29;;;;;;;6.32;2.85;;;;;;;7.02;100.00;100144.28;5079988;28;20037;-91
2024/01/04 08:35:55;;;;;;;9.27;2.70;;;;;;;7.03;100.00;100142.56;5077032;28;20066;-90
2024/01/04 08:38:21;;;;;;;6.28;2.60;;;;;;;7.04;100.00;100139.09;5080105;28;20028;-91
2024/01/04 08:40:47;;;;;;;3.85;2.45;;;;;;;7.08;100.00;100144.16;5082959;28;20020;-91
2024/01/04 08:43:13;;;;;;;9.20;2.83;;;;;;;7.10;100.00;100147.56;5082257;28;20035;-91
2024/01/04 08:45:38;;;;;;;8.32;3.00;;;;;;;7.12;100.00;100143.22;5080396;28;20365;-90
2024/01/04 08:48:04;;;;;;;7.45;3.50;;;;;;;7.12;100.00;100145.78;5078379;28;20024;-90
2024/01/04 08:50:29;;;;;;;6.43;3.10;;;;;;;7.14;100.00;100143.16;5078379;28;20078;-90
2024/01/04 08:52:55;;;;;;;5.88;3.13;;;;;;;7.16;100.00;100153.50;5073038;28;20531;-92
2024/01/04 08:55:21;;;;;;;6.25;3.50;;;;;;;7.16;100.00;100159.50;5079091;28;20345;-91
2024/01/04 08:57:46;;;;;;;9.27;3.60;;;;;;;7.17;100.00;100173.31;5083583;28;20024;-92
2024/01/04 09:00:14;;;;;;;8.05;3.30;;;;;;;7.16;100.00;100166.44;5081536;28;20033;-91
2024/01/04 09:02:40;;;;;;;6.88;3.30;;;;;;;7.17;100.00;100170.72;5079654;28;20477;-92
2024/01/04 09:05:06;;;;;;;5.47;2.83;;;;;;;7.16;100.00;100171.59;5078660;28;20047;-91
2024/01/04 09:07:32;;;;;;;9.00;2.83;;;;;;;7.16;100.00;100176.78;5070832;28;20046;-93
2024/01/04 09:09:57;;;;;;;6.35;2.90;;;;;;;7.17;100.00;100176.72;5076609;28;20173;-91
2024/01/04 09:12:22;;;;;;;5.60;2.45;;;;;;;7.20;100.00;100178.38;5080792;28;20476;-94
2024/01/04 09:14:49;;;;;;;5.65;2.33;;;;;;;7.22;100.00;100177.47;5059383;28;20024;-94
2024/01/04 09:19:49;;;;;;;4.47;2.03;;;;;;;7.28;100.00;100177.31;5199087;23;20053;-94
2024/01/04 09:22:19;;;;;;;4.30;2.17;;;;;;;7.31;100.00;100176.44;5012088;28;20187;-93
2024/01/04 09:24:50;;;;;;;4.07;1.90;;;;;;;7.30;100.00;100179.91;5012809;28;20034;-95
2024/01/04 09:27:29;;;;;;;;;;;;;;;;;;;;;
2024/01/04 09:29:55;;;;;;;5.45;2.00;;;;;;;7.32;100.00;100195.38;5029853;28;20039;-93
2024/01/04 09:32:32;;;;;;;5.50;2.00;;;;;;;7.34;100.00;100186.72;5020810;28;20108;-94
2024/01/04 09:34:57;;;;;;;6.68;1.65;;;;;;;7.40;100.00;100207.25;5001697;28;20609;-93
2024/01/04 09:37:33;;;;;;;3.70;1.70;;;;;;;7.40;100.00;100207.25;5006640;28;20021;-94
2024/01/04 09:40:41;;;;;;;2.58;1.35;;;;;;;7.46;100.00;100210.59;5031895;28;20033;-95
2024/01/04 09:43:15;;;;;;;9.95;1.30;;;;;;;7.44;100.00;100214.06;5011943;28;20026;-96
2024/01/04 09:45:43;;;;;;;6.10;1.50;;;;;;;7.44;100.00;100213.19;5014691;28;20026;-92
2024/01/04 09:48:13;;;;;;;2.53;1.33;;;;;;;7.43;100.00;100222.72;5015693;28;20112;-93
2024/01/04 09:50:39;;;;;;;4.32;1.30;;;;;;;7.42;100.00;100221.00;5012743;28;20061;-91
2024/01/04 09:53:06;;;;;;;2.67;1.30;;;;;;;7.40;100.00;100227.94;5014784;28;20045;-93
2024/01/04 09:55:34;;;;;;;2.72;1.20;;;;;;;7.41;100.00;100232.25;5022046;28;20705;-93
2024/01/04 09:58:00;;;;;;;2.00;1.17;;;;;;;7.44;100.00;100237.34;5027985;28;20021;-90
2024/01/04 10:00:27;;;;;;;2.45;1.10;;;;;;;7.43;100.00;100243.41;5007988;28;20429;-90
2024/01/04 10:02:53;;;;;;;3.40;1.13;;;;;;;7.46;100.00;100239.91;5012370;28;20459;-93
2024/01/04 10:05:20;;;;;;;2.60;1.20;;;;;;;7.47;100.00;100244.19;5018960;28;20273;-93
2024/01/04 10:08:35;;;;;;;3.20;1.00;;;;;;;7.50;100.00;100248.47;5031717;28;20117;-93
2024/01/04 10:11:10;;;;;;;3.25;1.00;;;;;;;7.51;100.00;100252.75;5026265;28;20037;-88
2024/01/04 10:13:37;;;;;;;2.58;1.00;;;;;;;7.50;100.00;100256.22;5027270;28;20029;-92
2024/01/04 10:16:05;;;;;;;4.57;0.80;;;;;;;7.51;100.00;100255.34;5007657;28;20190;-93
2024/01/04 10:21:22;;;;;;;1.92;0.70;;;;;;;7.49;100.00;100263.13;5776985;23;20455;-89
2024/01/04 10:29:19;;;;;;;3.95;0.60;;;;;;;7.40;100.00;100268.53;6095304;23;20033;-94
2024/01/04 10:32:19;;;;;;;2.30;0.60;;;;;;;7.34;100.00;100261.75;4935491;29;20052;-94
2024/01/04 10:34:54;;;;;;;;;;;;;;;;;;;;;
2024/01/04 10:37:32;;;;;;;;;;;;;;;;;;;;;
2024/01/04 10:40:05;;;;;;;2.58;0.55;;;;;;;7.41;100.00;100270.22;4938419;29;20032;-94
2024/01/04 10:42:31;;;;;;;2.85;0.70;;;;;;;7.45;100.00;100277.00;4936984;29;20441;-94
2024/01/04 10:44:59;;;;;;;2.45;0.75;;;;;;;7.43;100.00;100264.13;4936324;29;20091;-95
2024/01/04 10:47:27;;;;;;;2.28;0.90;;;;;;;7.44;100.00;100265.81;4951649;29;20028;-92
2024/01/04 10:50:03;;;;;;;2.25;0.77;;;;;;;7.41;100.00;100265.06;4935916;29;20116;-93
2024/01/04 10:52:34;;;;;;;4.35;0.90;;;;;;;7.39;100.00;100266.81;4934476;29;20038;-94
2024/01/04 10:55:02;;;;;;;4.95;0.70;;;;;;;7.41;100.00;100276.25;4953378;29;20445;-95
2024/01/04 10:57:31;;;;;;;5.07;1.00;;;;;;;7.41;100.00;100278.81;4936078;29;20023;-93
2024/01/04 10:59:58;;;;;;;3.05;1.05;;;;;;;7.43;100.00;100274.47;4920446;29;20036;-94
2024/01/04 11:02:29;;;;;;;2.08;1.05;;;;;;;7.48;100.00;100281.28;4940938;29;20609;-95
2024/01/04 11:04:54;;;;;;;4.40;1.45;;;;;;;7.51;100.00;100281.22;4933886;29;20600;-93
2024/01/04 11:07:21;;;;;;;4.35;1.52;;;;;;;7.57;100.00;100281.06;4918589;29;20127;-91
2024/01/04 11:09:48;;;;;;;3.70;1.75;;;;;;;7.57;100.00;100281.94;4949230;29;20020;-93
2024/01/04 11:12:16;;;;;;;5.18;1.58;;;;;;;7.59;100.00;100280.19;4932142;29;20118;-96
2024/01/04 11:14:41;;;;;;;2.88;1.63;;;;;;;7.64;100.00;100280.06;4920830;29;20024;-93
2024/01/04 11:17:38;;;;;;;;;;;;;;;;;;;;;
2024/01/04 11:32:10;;;;;;;8.35;1.35;;;;;;;7.81;100.00;100278.81;5066275;23;20051;-94
2024/01/04 11:34:41;;;;;;;3.40;1.38;;;;;;;7.87;100.00;100268.31;4939439;29;20081;-95
2024/01/04 11:37:50;;;;;;;;;;;;;;;;;;;;;
2024/01/04 11:40:29;;;;;;;4.70;1.50;;;;;;;7.84;100.00;100277.00;4952515;28;20042;-96
2024/01/04 11:43:13;;;;;;;3.22;1.58;;;;;;;7.81;100.00;100274.47;4951619;29;20035;-94
2024/01/04 11:45:41;;;;;;;4.47;1.50;;;;;;;7.82;100.00;100265.00;4941381;29;20055;-93
2024/01/04 11:48:12;;;;;;;2.80;1.42;;;;;;;7.83;100.00;100266.69;4953365;29;20027;-93
2024/01/04 11:51:34;;;;;;;3.67;1.60;;;;;;;7.83;100.00;100269.28;4954251;28;20030;-96
2024/01/04 11:59:35;;;;;;;3.92;1.42;;;;;;;7.77;100.00;100282.38;5130572;23;20054;-93
2024/01/04 12:02:00;;;;;;;4.45;1.50;;;;;;;7.79;100.00;100267.66;4971250;28;20065;-92
2024/01/04 12:04:26;;;;;;;3.10;1.55;;;;;;;7.79;100.00;100267.66;4971110;28;20037;-92